Sapp, Missouri
Current Conditions -  °F | °C
As of 5:54 AM on Saturday 25 Oct 2014 (Local Time) from KCOU Reporting Station
Haze Haze  
Wind Chill: 59°   Ceiling: Unl
Heat Index: 59°   Visibility: 6mi
Dew Point: 58°   Wind: 5mph
Humidity: 96%   Direction: 310°NW
Pressure: 30.02"   Gusts: NA
Location:  38.895°N, 92.3958°W
Report Text: KCOU 251054Z AUTO 31004KT 6SM BR CLR 15/14 A3002 RMK AO2 SLP163 T01500144 $
Loading
Personal Weather Stations






























Interactive Weather Map New forecast layout! Learn more

10-Day Weather Forecast

Advertisements
Track Severe Weather on mobile